Brightwaters, New York
Current Conditions -  °F | °C
As of 12:53 PM on Thursday 30 Oct 2014 (Local Time) from KFRG Reporting Station
Few Clouds Few Clouds  
Wind Chill: 59°   Ceiling: Unl
Heat Index: 59°   Visibility: 10mi
Dew Point: 41°   Wind: 7mph
Humidity: 51%   Direction: NA
Pressure: 29.98"   Gusts: NA
Location:  40.72°N, 73.27°W
Report Text: KFRG 301653Z VRB06KT 10SM FEW036 15/05 A2998 RMK AO2 SLP151 T01500050
Loading
Personal Weather Stations






























Interactive Weather Map New forecast layout! Learn more

10-Day Weather Forecast

Advertisements
Track Severe Weather on mobile